sensor_id;sensor_type;location;lat;lon;timestamp;pressure;altitude;pressure_sealevel;temperature;humidity
75745;BME280;64359;51.366;-0.222;2022-10-16T00:01:53;100305.66;;;21.29;62.54
75745;BME280;64359;51.366;-0.222;2022-10-16T00:04:23;100306.08;;;21.27;62.52
75745;BME280;64359;51.366;-0.222;2022-10-16T00:06:52;100315.15;;;21.25;62.64
75745;BME280;64359;51.366;-0.222;2022-10-16T00:09:22;100314.50;;;21.23;62.62
75745;BME280;64359;51.366;-0.222;2022-10-16T00:11:51;100323.02;;;21.22;62.68
75745;BME280;64359;51.366;-0.222;2022-10-16T00:14:21;100316.97;;;21.19;62.64
75745;BME280;64359;51.366;-0.222;2022-10-16T00:16:50;100312.01;;;21.18;62.69
75745;BME280;64359;51.366;-0.222;2022-10-16T00:19:20;100316.17;;;21.16;62.70
75745;BME280;64359;51.366;-0.222;2022-10-16T00:21:49;100311.88;;;21.14;62.73
75745;BME280;64359;51.366;-0.222;2022-10-16T00:24:19;100308.52;;;21.12;62.67
75745;BME280;64359;51.366;-0.222;2022-10-16T00:26:50;100308.11;;;21.11;62.69
75745;BME280;64359;51.366;-0.222;2022-10-16T00:29:20;100313.02;;;21.10;62.73
75745;BME280;64359;51.366;-0.222;2022-10-16T00:31:49;100314.69;;;21.08;62.69
75745;BME280;64359;51.366;-0.222;2022-10-16T00:34:19;100318.47;;;21.07;62.82
75745;BME280;64359;51.366;-0.222;2022-10-16T00:36:48;100324.98;;;21.05;62.70
75745;BME280;64359;51.366;-0.222;2022-10-16T00:39:18;100319.59;;;21.04;62.73
75745;BME280;64359;51.366;-0.222;2022-10-16T00:41:47;100325.88;;;21.03;62.70
75745;BME280;64359;51.366;-0.222;2022-10-16T00:44:54;100325.08;;;21.00;62.84
75745;BME280;64359;51.366;-0.222;2022-10-16T00:47:27;100322.48;;;20.99;62.88
75745;BME280;64359;51.366;-0.222;2022-10-16T00:50:02;100327.73;;;20.98;62.83
75745;BME280;64359;51.366;-0.222;2022-10-16T00:52:34;100329.35;;;20.97;62.86
75745;BME280;64359;51.366;-0.222;2022-10-16T00:55:06;100334.48;;;20.96;62.77
75745;BME280;64359;51.366;-0.222;2022-10-16T00:57:39;100334.42;;;20.95;62.86
75745;BME280;64359;51.366;-0.222;2022-10-16T01:00:12;100335.92;;;20.94;62.85
75745;BME280;64359;51.366;-0.222;2022-10-16T01:02:42;100336.91;;;20.93;62.94
75745;BME280;64359;51.366;-0.222;2022-10-16T01:05:12;100337.41;;;20.92;62.98
75745;BME280;64359;51.366;-0.222;2022-10-16T01:07:50;100338.49;;;20.93;63.09
75745;BME280;64359;51.366;-0.222;2022-10-16T01:10:30;100341.35;;;20.96;63.25
75745;BME280;64359;51.366;-0.222;2022-10-16T01:13:03;100337.40;;;20.99;63.31
75745;BME280;64359;51.366;-0.222;2022-10-16T01:15:37;100343.37;;;21.01;63.19
75745;BME280;64359;51.366;-0.222;2022-10-16T01:18:14;100347.00;;;21.02;63.08
75745;BME280;64359;51.366;-0.222;2022-10-16T01:20:47;100344.96;;;21.04;62.96
75745;BME280;64359;51.366;-0.222;2022-10-16T01:23:27;100350.38;;;21.04;62.86
75745;BME280;64359;51.366;-0.222;2022-10-16T01:26:23;100349.96;;;21.05;62.89
75745;BME280;64359;51.366;-0.222;2022-10-16T01:29:05;100357.00;;;21.05;62.72
75745;BME280;64359;51.366;-0.222;2022-10-16T01:31:39;100358.27;;;21.05;62.56
75745;BME280;64359;51.366;-0.222;2022-10-16T01:34:15;100358.59;;;21.04;62.59
75745;BME280;64359;51.366;-0.222;2022-10-16T01:36:49;100359.17;;;21.03;62.60
75745;BME280;64359;51.366;-0.222;2022-10-16T01:39:24;100359.54;;;21.02;62.60
75745;BME280;64359;51.366;-0.222;2022-10-16T01:42:01;100359.16;;;21.01;62.53
75745;BME280;64359;51.366;-0.222;2022-10-16T01:44:34;100369.86;;;20.99;62.54
75745;BME280;64359;51.366;-0.222;2022-10-16T01:47:06;100373.27;;;20.98;62.55
75745;BME280;64359;51.366;-0.222;2022-10-16T01:49:40;100379.88;;;20.97;62.55
75745;BME280;64359;51.366;-0.222;2022-10-16T01:52:19;100375.80;;;20.95;62.52
75745;BME280;64359;51.366;-0.222;2022-10-16T01:54:52;100382.90;;;20.93;62.56
75745;BME280;64359;51.366;-0.222;2022-10-16T01:57:26;100375.06;;;20.91;62.58
75745;BME280;64359;51.366;-0.222;2022-10-16T01:59:58;100364.73;;;20.89;62.58
75745;BME280;64359;51.366;-0.222;2022-10-16T02:02:31;100370.86;;;20.86;62.66
75745;BME280;64359;51.366;-0.222;2022-10-16T02:05:08;100375.07;;;20.84;62.62
75745;BME280;64359;51.366;-0.222;2022-10-16T02:07:40;100377.69;;;20.83;62.65
75745;BME280;64359;51.366;-0.222;2022-10-16T02:10:11;100374.14;;;20.81;62.65
75745;BME280;64359;51.366;-0.222;2022-10-16T02:12:44;100378.50;;;20.79;62.66
75745;BME280;64359;51.366;-0.222;2022-10-16T02:15:16;100380.78;;;20.78;62.69
75745;BME280;64359;51.366;-0.222;2022-10-16T02:17:44;100378.66;;;20.77;62.65
75745;BME280;64359;51.366;-0.222;2022-10-16T02:20:13;100386.18;;;20.74;62.72
75745;BME280;64359;51.366;-0.222;2022-10-16T02:22:45;100389.86;;;20.73;62.71
75745;BME280;64359;51.366;-0.222;2022-10-16T02:25:22;100390.07;;;20.71;62.82
75745;BME280;64359;51.366;-0.222;2022-10-16T02:27:56;100395.10;;;20.70;62.79
75745;BME280;64359;51.366;-0.222;2022-10-16T02:30:29;100404.80;;;20.69;62.78
75745;BME280;64359;51.366;-0.222;2022-10-16T02:33:01;100414.40;;;20.67;62.88
75745;BME280;64359;51.366;-0.222;2022-10-16T02:35:33;100419.44;;;20.66;62.84
75745;BME280;64359;51.366;-0.222;2022-10-16T02:38:03;100419.92;;;20.64;62.80
75745;BME280;64359;51.366;-0.222;2022-10-16T02:40:34;100423.41;;;20.63;62.76
75745;BME280;64359;51.366;-0.222;2022-10-16T02:43:06;100423.98;;;20.63;62.85
75745;BME280;64359;51.366;-0.222;2022-10-16T02:45:35;100427.94;;;20.62;62.85
75745;BME280;64359;51.366;-0.222;2022-10-16T02:48:06;100425.92;;;20.61;62.93
75745;BME280;64359;51.366;-0.222;2022-10-16T02:50:36;100426.14;;;20.61;63.12
75745;BME280;64359;51.366;-0.222;2022-10-16T02:53:05;100431.61;;;20.64;63.28
75745;BME280;64359;51.366;-0.222;2022-10-16T02:55:35;100432.96;;;20.66;63.31
75745;BME280;64359;51.366;-0.222;2022-10-16T02:58:04;100433.31;;;20.67;63.25
75745;BME280;64359;51.366;-0.222;2022-10-16T03:00:34;100435.37;;;20.68;63.15
75745;BME280;64359;51.366;-0.222;2022-10-16T03:03:04;100438.19;;;20.69;62.92
75745;BME280;64359;51.366;-0.222;2022-10-16T03:05:33;100440.58;;;20.69;62.93
75745;BME280;64359;51.366;-0.222;2022-10-16T03:08:03;100441.48;;;20.68;62.84
75745;BME280;64359;51.366;-0.222;2022-10-16T03:10:33;100441.11;;;20.69;62.79
75745;BME280;64359;51.366;-0.222;2022-10-16T03:13:02;100437.89;;;20.68;62.68
75745;BME280;64359;51.366;-0.222;2022-10-16T03:15:33;100443.09;;;20.67;62.75
75745;BME280;64359;51.366;-0.222;2022-10-16T03:18:02;100445.34;;;20.66;62.61
75745;BME280;64359;51.366;-0.222;2022-10-16T03:20:32;100448.54;;;20.65;62.79
75745;BME280;64359;51.366;-0.222;2022-10-16T03:23:01;100445.65;;;20.64;62.61
75745;BME280;64359;51.366;-0.222;2022-10-16T03:25:30;100447.55;;;20.62;62.68
75745;BME280;64359;51.366;-0.222;2022-10-16T03:27:59;100452.33;;;20.60;62.76
75745;BME280;64359;51.366;-0.222;2022-10-16T03:30:29;100455.95;;;20.58;62.67
75745;BME280;64359;51.366;-0.222;2022-10-16T03:32:57;100458.12;;;20.55;62.69
75745;BME280;64359;51.366;-0.222;2022-10-16T03:35:27;100463.64;;;20.53;62.74
75745;BME280;64359;51.366;-0.222;2022-10-16T03:37:56;100467.66;;;20.51;62.71
75745;BME280;64359;51.366;-0.222;2022-10-16T03:40:26;100464.73;;;20.48;62.78
75745;BME280;64359;51.366;-0.222;2022-10-16T03:42:55;100469.09;;;20.47;62.83
75745;BME280;64359;51.366;-0.222;2022-10-16T03:45:25;100471.14;;;20.45;62.74
75745;BME280;64359;51.366;-0.222;2022-10-16T03:47:55;100471.17;;;20.44;62.87
75745;BME280;64359;51.366;-0.222;2022-10-16T03:50:25;100474.25;;;20.42;62.78
75745;BME280;64359;51.366;-0.222;2022-10-16T03:52:54;100476.42;;;20.40;62.87
75745;BME280;64359;51.366;-0.222;2022-10-16T03:55:24;100472.98;;;20.39;62.91
75745;BME280;64359;51.366;-0.222;2022-10-16T03:57:53;100478.61;;;20.37;62.98
75745;BME280;64359;51.366;-0.222;2022-10-16T04:00:23;100486.73;;;20.36;62.92
75745;BME280;64359;51.366;-0.222;2022-10-16T04:02:52;100491.73;;;20.35;62.87
75745;BME280;64359;51.366;-0.222;2022-10-16T04:05:22;100496.20;;;20.34;62.93
75745;BME280;64359;51.366;-0.222;2022-10-16T04:07:51;100499.44;;;20.32;62.91
75745;BME280;64359;51.366;-0.222;2022-10-16T04:10:21;100507.37;;;20.31;62.92
75745;BME280;64359;51.366;-0.222;2022-10-16T04:12:50;100509.77;;;20.29;62.99
75745;BME280;64359;51.366;-0.222;2022-10-16T04:15:22;100512.79;;;20.28;63.03
75745;BME280;64359;51.366;-0.222;2022-10-16T04:17:53;100514.45;;;20.26;63.03
75745;BME280;64359;51.366;-0.222;2022-10-16T04:20:22;100524.50;;;20.25;63.02
75745;BME280;64359;51.366;-0.222;2022-10-16T04:22:52;100529.11;;;20.24;63.05
75745;BME280;64359;51.366;-0.222;2022-10-16T04:25:21;100532.84;;;20.23;63.07
75745;BME280;64359;51.366;-0.222;2022-10-16T04:27:52;100538.81;;;20.24;63.14
75745;BME280;64359;51.366;-0.222;2022-10-16T04:30:21;100538.27;;;20.29;63.34
75745;BME280;64359;51.366;-0.222;2022-10-16T04:32:51;100544.19;;;20.33;63.48
75745;BME280;64359;51.366;-0.222;2022-10-16T04:35:22;100552.70;;;20.39;63.51
75745;BME280;64359;51.366;-0.222;2022-10-16T04:41:18;100565.97;;;20.51;63.21
75745;BME280;64359;51.366;-0.222;2022-10-16T04:43:48;100569.53;;;20.50;63.08
75745;BME280;64359;51.366;-0.222;2022-10-16T04:46:17;100576.11;;;20.51;62.82
75745;BME280;64359;51.366;-0.222;2022-10-16T04:48:47;100587.89;;;20.50;62.79
75745;BME280;64359;51.366;-0.222;2022-10-16T04:51:16;100592.25;;;20.49;62.54
75745;BME280;64359;51.366;-0.222;2022-10-16T04:53:47;100594.73;;;20.48;62.71
75745;BME280;64359;51.366;-0.222;2022-10-16T04:56:16;100598.88;;;20.46;62.54
75745;BME280;64359;51.366;-0.222;2022-10-16T04:58:45;100601.20;;;20.45;62.57
75745;BME280;64359;51.366;-0.222;2022-10-16T05:01:14;100608.27;;;20.44;62.75
75745;BME280;64359;51.366;-0.222;2022-10-16T05:03:44;100616.04;;;20.40;62.48
75745;BME280;64359;51.366;-0.222;2022-10-16T05:06:14;100617.20;;;20.38;62.59
75745;BME280;64359;51.366;-0.222;2022-10-16T05:08:44;100626.20;;;20.37;62.59
75745;BME280;64359;51.366;-0.222;2022-10-16T05:11:16;100630.31;;;20.34;62.50
75745;BME280;64359;51.366;-0.222;2022-10-16T05:13:46;100637.11;;;20.32;62.60
75745;BME280;64359;51.366;-0.222;2022-10-16T05:16:16;100639.80;;;20.30;62.57
75745;BME280;64359;51.366;-0.222;2022-10-16T05:18:46;100640.15;;;20.29;62.59
75745;BME280;64359;51.366;-0.222;2022-10-16T05:21:15;100638.22;;;20.27;62.73
75745;BME280;64359;51.366;-0.222;2022-10-16T05:23:45;100635.55;;;20.24;62.70
75745;BME280;64359;51.366;-0.222;2022-10-16T05:26:17;100643.54;;;20.23;62.77
75745;BME280;64359;51.366;-0.222;2022-10-16T05:28:47;100643.05;;;20.21;62.80
75745;BME280;64359;51.366;-0.222;2022-10-16T05:31:18;100644.48;;;20.18;62.88
75745;BME280;64359;51.366;-0.222;2022-10-16T05:33:48;100647.70;;;20.17;63.10
75745;BME280;64359;51.366;-0.222;2022-10-16T05:36:17;100646.85;;;20.15;63.11
75745;BME280;64359;51.366;-0.222;2022-10-16T05:38:49;100653.06;;;20.13;63.10
75745;BME280;64359;51.366;-0.222;2022-10-16T05:41:20;100657.34;;;20.12;63.20
75745;BME280;64359;51.366;-0.222;2022-10-16T05:43:51;100661.29;;;20.11;63.23
75745;BME280;64359;51.366;-0.222;2022-10-16T05:46:21;100664.89;;;20.09;63.17
75745;BME280;64359;51.366;-0.222;2022-10-16T05:48:53;100664.36;;;20.08;63.33
75745;BME280;64359;51.366;-0.222;2022-10-16T05:51:22;100667.14;;;20.07;63.24
75745;BME280;64359;51.366;-0.222;2022-10-16T05:53:53;100667.29;;;20.06;63.46
75745;BME280;64359;51.366;-0.222;2022-10-16T05:56:23;100671.35;;;20.05;63.35
75745;BME280;64359;51.366;-0.222;2022-10-16T05:58:53;100676.73;;;20.07;63.62
75745;BME280;64359;51.366;-0.222;2022-10-16T06:01:22;100678.70;;;20.10;63.86
75745;BME280;64359;51.366;-0.222;2022-10-16T06:03:52;100681.60;;;20.13;63.84
75745;BME280;64359;51.366;-0.222;2022-10-16T06:06:21;100684.59;;;20.15;63.86
75745;BME280;64359;51.366;-0.222;2022-10-16T06:08:51;100685.27;;;20.17;63.63
75745;BME280;64359;51.366;-0.222;2022-10-16T06:11:23;100690.95;;;20.17;63.57
75745;BME280;64359;51.366;-0.222;2022-10-16T06:13:53;100695.41;;;20.19;63.56
75745;BME280;64359;51.366;-0.222;2022-10-16T06:16:25;100695.05;;;20.22;63.53
75745;BME280;64359;51.366;-0.222;2022-10-16T06:18:57;100700.98;;;20.26;63.58
75745;BME280;64359;51.366;-0.222;2022-10-16T06:21:28;100707.94;;;20.28;63.49
75745;BME280;64359;51.366;-0.222;2022-10-16T06:23:58;100707.16;;;20.30;63.53
75745;BME280;64359;51.366;-0.222;2022-10-16T06:26:29;100710.82;;;20.32;63.46
75745;BME280;64359;51.366;-0.222;2022-10-16T06:29:00;100709.33;;;20.32;63.55
75745;BME280;64359;51.366;-0.222;2022-10-16T06:31:30;100711.05;;;20.33;63.35
75745;BME280;64359;51.366;-0.222;2022-10-16T06:34:01;100715.20;;;20.33;63.32
75745;BME280;64359;51.366;-0.222;2022-10-16T06:36:33;100717.86;;;20.33;63.23
75745;BME280;64359;51.366;-0.222;2022-10-16T06:39:01;100721.26;;;20.34;63.17
75745;BME280;64359;51.366;-0.222;2022-10-16T06:41:30;100723.08;;;20.34;62.98
75745;BME280;64359;51.366;-0.222;2022-10-16T06:44:00;100727.45;;;20.33;62.89
75745;BME280;64359;51.366;-0.222;2022-10-16T06:46:29;100725.45;;;20.33;62.85
75745;BME280;64359;51.366;-0.222;2022-10-16T06:48:59;100723.08;;;20.34;62.90
75745;BME280;64359;51.366;-0.222;2022-10-16T06:51:29;100725.81;;;20.33;62.89
75745;BME280;64359;51.366;-0.222;2022-10-16T06:54:00;100730.69;;;20.33;62.73
75745;BME280;64359;51.366;-0.222;2022-10-16T06:56:31;100734.11;;;20.33;62.69
75745;BME280;64359;51.366;-0.222;2022-10-16T06:59:01;100737.73;;;20.33;62.64
75745;BME280;64359;51.366;-0.222;2022-10-16T07:01:31;100744.05;;;20.33;62.59
75745;BME280;64359;51.366;-0.222;2022-10-16T07:04:02;100749.39;;;20.34;62.59
75745;BME280;64359;51.366;-0.222;2022-10-16T07:06:34;100752.64;;;20.34;62.57
75745;BME280;64359;51.366;-0.222;2022-10-16T07:09:06;100759.63;;;20.34;62.56
75745;BME280;64359;51.366;-0.222;2022-10-16T07:11:36;100771.11;;;20.35;62.50
75745;BME280;64359;51.366;-0.222;2022-10-16T07:14:08;100774.66;;;20.35;62.42
75745;BME280;64359;51.366;-0.222;2022-10-16T07:16:41;100780.00;;;20.36;62.22
75745;BME280;64359;51.366;-0.222;2022-10-16T07:19:11;100786.29;;;20.36;62.28
75745;BME280;64359;51.366;-0.222;2022-10-16T07:21:43;100787.47;;;20.37;62.21
75745;BME280;64359;51.366;-0.222;2022-10-16T07:24:14;100788.67;;;20.37;62.17
75745;BME280;64359;51.366;-0.222;2022-10-16T07:26:45;100792.27;;;20.37;62.03
75745;BME280;64359;51.366;-0.222;2022-10-16T07:29:17;100799.35;;;20.38;62.14
75745;BME280;64359;51.366;-0.222;2022-10-16T07:31:48;100799.21;;;20.39;62.24
75745;BME280;64359;51.366;-0.222;2022-10-16T07:34:19;100803.42;;;20.41;62.26
75745;BME280;64359;51.366;-0.222;2022-10-16T07:36:51;100810.02;;;20.43;62.40
75745;BME280;64359;51.366;-0.222;2022-10-16T07:39:20;100813.16;;;20.46;61.80
75745;BME280;64359;51.366;-0.222;2022-10-16T07:41:50;100812.17;;;20.50;62.21
75745;BME280;64359;51.366;-0.222;2022-10-16T07:44:18;100819.33;;;20.54;62.17
75745;BME280;64359;51.366;-0.222;2022-10-16T07:46:48;100821.08;;;20.56;61.87
75745;BME280;64359;51.366;-0.222;2022-10-16T07:49:18;100825.09;;;20.57;61.83
75745;BME280;64359;51.366;-0.222;2022-10-16T07:51:48;100830.33;;;20.59;61.78
75745;BME280;64359;51.366;-0.222;2022-10-16T07:54:17;100832.98;;;20.59;61.63
75745;BME280;64359;51.366;-0.222;2022-10-16T07:56:47;100836.82;;;20.60;61.45
75745;BME280;64359;51.366;-0.222;2022-10-16T07:59:17;100834.76;;;20.61;61.35
75745;BME280;64359;51.366;-0.222;2022-10-16T08:01:46;100836.67;;;20.61;61.31
75745;BME280;64359;51.366;-0.222;2022-10-16T08:04:18;100842.31;;;20.62;61.22
75745;BME280;64359;51.366;-0.222;2022-10-16T08:06:48;100849.51;;;20.62;61.09
75745;BME280;64359;51.366;-0.222;2022-10-16T08:09:18;100850.02;;;20.63;60.97
75745;BME280;64359;51.366;-0.222;2022-10-16T08:11:47;100854.11;;;20.62;61.04
75745;BME280;64359;51.366;-0.222;2022-10-16T08:14:17;100858.14;;;20.63;60.98
75745;BME280;64359;51.366;-0.222;2022-10-16T08:16:47;100863.96;;;20.62;60.86
75745;BME280;64359;51.366;-0.222;2022-10-16T08:19:16;100871.11;;;20.61;60.78
75745;BME280;64359;51.366;-0.222;2022-10-16T08:21:48;100876.15;;;20.62;60.84
75745;BME280;64359;51.366;-0.222;2022-10-16T08:24:18;100880.86;;;20.62;60.79
75745;BME280;64359;51.366;-0.222;2022-10-16T08:26:47;100882.91;;;20.62;60.77
75745;BME280;64359;51.366;-0.222;2022-10-16T08:29:17;100881.27;;;20.64;60.81
75745;BME280;64359;51.366;-0.222;2022-10-16T08:31:47;100882.38;;;20.65;60.70
75745;BME280;64359;51.366;-0.222;2022-10-16T08:34:17;100884.89;;;20.67;60.68
75745;BME280;64359;51.366;-0.222;2022-10-16T08:36:47;100883.93;;;20.67;60.71
75745;BME280;64359;51.366;-0.222;2022-10-16T08:39:16;100886.33;;;20.68;60.59
75745;BME280;64359;51.366;-0.222;2022-10-16T08:42:14;100885.62;;;20.68;60.50
75745;BME280;64359;51.366;-0.222;2022-10-16T08:45:05;100890.38;;;20.69;60.41
75745;BME280;64359;51.366;-0.222;2022-10-16T08:47:47;100900.77;;;20.70;60.37
75745;BME280;64359;51.366;-0.222;2022-10-16T08:50:24;100907.02;;;20.70;60.42
75745;BME280;64359;51.366;-0.222;2022-10-16T08:52:56;100908.92;;;20.70;60.43
75745;BME280;64359;51.366;-0.222;2022-10-16T08:55:37;100907.84;;;20.72;60.59
75745;BME280;64359;51.366;-0.222;2022-10-16T08:58:15;100908.29;;;20.75;60.57
75745;BME280;64359;51.366;-0.222;2022-10-16T09:00:47;100909.71;;;20.75;60.64
75745;BME280;64359;51.366;-0.222;2022-10-16T09:03:37;100910.75;;;20.75;60.68
75745;BME280;64359;51.366;-0.222;2022-10-16T09:06:32;100915.46;;;20.75;60.63
75745;BME280;64359;51.366;-0.222;2022-10-16T09:09:23;100922.20;;;20.74;60.72
75745;BME280;64359;51.366;-0.222;2022-10-16T09:12:02;100923.16;;;20.74;60.78
75745;BME280;64359;51.366;-0.222;2022-10-16T09:14:44;100926.44;;;20.74;60.80
75745;BME280;64359;51.366;-0.222;2022-10-16T09:17:30;100931.09;;;20.73;61.02
75745;BME280;64359;51.366;-0.222;2022-10-16T09:20:16;100936.00;;;20.72;60.94
75745;BME280;64359;51.366;-0.222;2022-10-16T09:22:47;100939.69;;;20.72;61.12
75745;BME280;64359;51.366;-0.222;2022-10-16T09:25:20;100937.69;;;20.72;61.19
75745;BME280;64359;51.366;-0.222;2022-10-16T09:27:53;100937.47;;;20.71;61.28
75745;BME280;64359;51.366;-0.222;2022-10-16T09:30:26;100936.42;;;20.70;61.23
75745;BME280;64359;51.366;-0.222;2022-10-16T09:32:58;100935.45;;;20.70;61.33
75745;BME280;64359;51.366;-0.222;2022-10-16T09:35:35;100941.11;;;20.69;61.39
75745;BME280;64359;51.366;-0.222;2022-10-16T09:38:07;100945.30;;;20.69;61.45
75745;BME280;64359;51.366;-0.222;2022-10-16T09:40:38;100947.34;;;20.68;61.53
75745;BME280;64359;51.366;-0.222;2022-10-16T09:43:21;100945.17;;;20.68;61.70
75745;BME280;64359;51.366;-0.222;2022-10-16T09:46:00;100941.31;;;20.69;61.93
75745;BME280;64359;51.366;-0.222;2022-10-16T09:48:38;100943.60;;;20.69;62.15
75745;BME280;64359;51.366;-0.222;2022-10-16T09:51:26;100945.66;;;20.70;62.29
75745;BME280;64359;51.366;-0.222;2022-10-16T09:54:00;100947.89;;;20.71;62.34
75745;BME280;64359;51.366;-0.222;2022-10-16T09:56:32;100953.70;;;20.75;62.76
75745;BME280;64359;51.366;-0.222;2022-10-16T09:59:10;100962.55;;;20.79;62.07
75745;BME280;64359;51.366;-0.222;2022-10-16T10:01:43;100962.58;;;20.81;62.04
75745;BME280;64359;51.366;-0.222;2022-10-16T10:04:14;100964.69;;;20.83;62.17
75745;BME280;64359;51.366;-0.222;2022-10-16T10:06:45;100968.49;;;20.85;62.07
75745;BME280;64359;51.366;-0.222;2022-10-16T10:09:21;100969.36;;;20.87;62.14
75745;BME280;64359;51.366;-0.222;2022-10-16T10:11:55;100971.54;;;20.88;61.99
75745;BME280;64359;51.366;-0.222;2022-10-16T10:14:32;100973.73;;;20.89;61.88
75745;BME280;64359;51.366;-0.222;2022-10-16T10:17:19;100970.98;;;20.90;61.94
75745;BME280;64359;51.366;-0.222;2022-10-16T10:19:52;100972.73;;;20.90;61.96
75745;BME280;64359;51.366;-0.222;2022-10-16T10:22:29;100981.06;;;20.90;61.89
75745;BME280;64359;51.366;-0.222;2022-10-16T10:25:07;100975.91;;;20.90;61.92
75745;BME280;64359;51.366;-0.222;2022-10-16T10:27:50;100971.95;;;20.90;61.94
75745;BME280;64359;51.366;-0.222;2022-10-16T10:30:26;100970.61;;;20.90;61.89
75745;BME280;64359;51.366;-0.222;2022-10-16T10:33:15;100973.48;;;20.90;61.89
75745;BME280;64359;51.366;-0.222;2022-10-16T10:35:52;100971.83;;;20.90;61.78
75745;BME280;64359;51.366;-0.222;2022-10-16T10:38:30;100969.15;;;20.90;61.89
75745;BME280;64359;51.366;-0.222;2022-10-16T10:41:14;100973.61;;;20.90;61.85
75745;BME280;64359;51.366;-0.222;2022-10-16T10:43:58;100971.67;;;20.91;61.96
75745;BME280;64359;51.366;-0.222;2022-10-16T10:46:34;100969.30;;;20.92;61.92
75745;BME280;64359;51.366;-0.222;2022-10-16T10:49:13;100972.16;;;20.93;61.92
75745;BME280;64359;51.366;-0.222;2022-10-16T10:51:52;100972.09;;;20.94;61.86
75745;BME280;64359;51.366;-0.222;2022-10-16T10:54:32;100969.95;;;20.95;61.88
75745;BME280;64359;51.366;-0.222;2022-10-16T10:57:14;100968.11;;;20.95;61.98
75745;BME280;64359;51.366;-0.222;2022-10-16T11:00:11;100965.25;;;20.97;62.07
75745;BME280;64359;51.366;-0.222;2022-10-16T11:02:52;100963.30;;;20.98;62.02
75745;BME280;64359;51.366;-0.222;2022-10-16T11:05:37;100955.92;;;20.99;61.93
75745;BME280;64359;51.366;-0.222;2022-10-16T11:08:13;100956.44;;;21.01;62.03
75745;BME280;64359;51.366;-0.222;2022-10-16T11:10:49;100957.08;;;21.01;61.96
75745;BME280;64359;51.366;-0.222;2022-10-16T11:13:33;100953.92;;;21.02;61.98
75745;BME280;64359;51.366;-0.222;2022-10-16T11:16:17;100952.17;;;21.03;62.07
75745;BME280;64359;51.366;-0.222;2022-10-16T11:18:52;100953.52;;;21.04;61.90
75745;BME280;64359;51.366;-0.222;2022-10-16T11:21:22;100950.71;;;21.04;61.58
75745;BME280;64359;51.366;-0.222;2022-10-16T11:23:53;100944.04;;;21.04;61.54
75745;BME280;64359;51.366;-0.222;2022-10-16T11:26:27;100940.78;;;21.04;61.78
75745;BME280;64359;51.366;-0.222;2022-10-16T11:28:59;100943.96;;;21.05;61.82
75745;BME280;64359;51.366;-0.222;2022-10-16T11:31:45;100943.16;;;21.06;61.93
75745;BME280;64359;51.366;-0.222;2022-10-16T11:34:24;100946.48;;;21.08;62.09
75745;BME280;64359;51.366;-0.222;2022-10-16T11:36:58;100942.52;;;21.10;62.17
75745;BME280;64359;51.366;-0.222;2022-10-16T11:39:31;100936.67;;;21.12;62.26
75745;BME280;64359;51.366;-0.222;2022-10-16T11:42:07;100934.34;;;21.16;62.52
75745;BME280;64359;51.366;-0.222;2022-10-16T11:44:53;100940.58;;;21.21;62.54
75745;BME280;64359;51.366;-0.222;2022-10-16T11:47:33;100942.34;;;21.28;62.55
75745;BME280;64359;51.366;-0.222;2022-10-16T11:50:13;100939.34;;;21.33;62.48
75745;BME280;64359;51.366;-0.222;2022-10-16T11:52:55;100942.05;;;21.39;62.32
75745;BME280;64359;51.366;-0.222;2022-10-16T11:55:30;100935.73;;;21.43;62.26
75745;BME280;64359;51.366;-0.222;2022-10-16T11:58:05;100938.20;;;21.48;62.15
75745;BME280;64359;51.366;-0.222;2022-10-16T12:00:43;100940.15;;;21.53;62.00
75745;BME280;64359;51.366;-0.222;2022-10-16T12:03:20;100939.75;;;21.56;61.94
75745;BME280;64359;51.366;-0.222;2022-10-16T12:06:02;100940.63;;;21.59;61.98
75745;BME280;64359;51.366;-0.222;2022-10-16T12:08:36;100939.83;;;21.63;61.92
75745;BME280;64359;51.366;-0.222;2022-10-16T12:11:20;100943.31;;;21.65;61.95
75745;BME280;64359;51.366;-0.222;2022-10-16T12:13:52;100940.80;;;21.68;61.87
75745;BME280;64359;51.366;-0.222;2022-10-16T12:16:32;100939.66;;;21.70;62.09
75745;BME280;64359;51.366;-0.222;2022-10-16T12:19:15;100935.41;;;21.71;62.04
75745;BME280;64359;51.366;-0.222;2022-10-16T12:21:46;100931.59;;;21.72;62.18
75745;BME280;64359;51.366;-0.222;2022-10-16T12:24:30;100930.14;;;21.74;62.30
75745;BME280;64359;51.366;-0.222;2022-10-16T12:27:01;100927.69;;;21.74;62.49
75745;BME280;64359;51.366;-0.222;2022-10-16T12:29:35;100923.20;;;21.76;62.56
75745;BME280;64359;51.366;-0.222;2022-10-16T12:32:27;100924.90;;;21.77;62.57
75745;BME280;64359;51.366;-0.222;2022-10-16T12:34:58;100919.57;;;21.77;62.62
75745;BME280;64359;51.366;-0.222;2022-10-16T12:37:33;100915.54;;;21.78;62.42
75745;BME280;64359;51.366;-0.222;2022-10-16T12:40:15;100918.45;;;21.78;62.43
75745;BME280;64359;51.366;-0.222;2022-10-16T12:42:52;100917.33;;;21.78;62.39
75745;BME280;64359;51.366;-0.222;2022-10-16T12:45:30;100917.96;;;21.79;62.38
75745;BME280;64359;51.366;-0.222;2022-10-16T12:48:02;100911.66;;;21.79;62.26
75745;BME280;64359;51.366;-0.222;2022-10-16T12:50:36;100913.30;;;21.79;62.29
75745;BME280;64359;51.366;-0.222;2022-10-16T12:53:21;100913.33;;;21.79;62.29
75745;BME280;64359;51.366;-0.222;2022-10-16T12:55:59;100912.75;;;21.79;62.16
75745;BME280;64359;51.366;-0.222;2022-10-16T12:58:45;100910.84;;;21.80;62.14
75745;BME280;64359;51.366;-0.222;2022-10-16T13:01:27;100914.73;;;21.80;62.18
75745;BME280;64359;51.366;-0.222;2022-10-16T13:04:16;100911.91;;;21.80;62.09
75745;BME280;64359;51.366;-0.222;2022-10-16T13:06:55;100909.23;;;21.81;62.12
75745;BME280;64359;51.366;-0.222;2022-10-16T13:09:43;100909.27;;;21.82;62.22
75745;BME280;64359;51.366;-0.222;2022-10-16T13:12:38;100914.80;;;21.83;62.45
75745;BME280;64359;51.366;-0.222;2022-10-16T13:15:24;100912.03;;;21.87;62.67
75745;BME280;64359;51.366;-0.222;2022-10-16T13:18:02;100907.45;;;21.92;62.86